Time;durP1;ratioP1;P1;durP2;ratioP2;P2;SDS_P1;SDS_P2;PMS_P1;PMS_P2;Temp;Humidity;BMP_temperature;BMP_pressure;BME280_temperature;BME280_humidity;BME280_pressure;Samples;Min_cycle;Max_cycle;Signal;HPM_P1;HPM_P2
2023/01/13 00:02:19;;;;;;;23.95;2.55;;;;;;;;;;6140406;23;20018;-96
2023/01/13 00:07:59;;;;;;;26.00;3.70;;;;;;;;;;6168868;23;20487;-96
2023/01/13 00:16:54;;;;;;;19.52;3.67;;;;;;;;;;6156815;23;20005;-96
2023/01/13 00:20:07;;;;;;;28.23;4.20;;;;;;;;;;6164096;23;20029;-96
2023/01/13 00:22:37;;;;;;;37.72;5.53;;;;;;;;;;6165274;23;20055;-96
2023/01/13 00:25:42;;;;;;;;;;;;;;;;;;;;;
2023/01/13 00:28:09;;;;;;;33.20;4.68;;;;;;;;;;6190561;23;20076;-96
2023/01/13 00:30:57;;;;;;;34.50;6.53;;;;;;;;;;6166213;23;20329;-96
2023/01/13 00:33:31;;;;;;;25.55;4.95;;;;;;;;;;6190870;23;20430;-96
2023/01/13 00:36:26;;;;;;;20.67;4.35;;;;;;;;;;6193838;23;20008;-96
2023/01/13 00:39:15;;;;;;;25.50;5.47;;;;;;;;;;6244439;23;20005;-96
2023/01/13 00:44:33;;;;;;;30.52;4.13;;;;;;;;;;6221495;23;20012;-95
2023/01/13 00:47:20;;;;;;;;;;;;;;;;;;;;;
2023/01/13 00:49:46;;;;;;;17.63;3.10;;;;;;;;;;6220463;23;20096;-95
2023/01/13 00:52:12;;;;;;;31.00;4.40;;;;;;;;;;6245853;23;20008;-95
2023/01/13 00:55:03;;;;;;;37.63;5.22;;;;;;;;;;6220151;23;20318;-95
2023/01/13 00:58:03;;;;;;;;;;;;;;;;;;;;;
2023/01/13 01:00:35;;;;;;;16.10;3.67;;;;;;;;;;6226151;22;20042;-96
2023/01/13 01:03:49;;;;;;;;;;;;;;;;;;;;;
2023/01/13 01:09:15;;;;;;;12.85;3.08;;;;;;;;;;6280907;22;20008;-95
2023/01/13 01:11:50;;;;;;;33.38;4.80;;;;;;;;;;6234825;22;20004;-95
2023/01/13 01:17:59;;;;;;;46.97;7.38;;;;;;;;;;6232623;22;20103;-96
2023/01/13 01:27:15;;;;;;;;;;;;;;;;;;6136772;23;20458;-96
2023/01/13 01:29:52;;;;;;;29.17;3.97;;;;;;;;;;6202813;22;19945;-96
2023/01/13 01:32:21;;;;;;;47.05;4.72;;;;;;;;;;6236041;22;20012;-96
2023/01/13 01:38:45;;;;;;;40.30;5.05;;;;;;;;;;6138760;23;20036;-96
2023/01/13 01:43:57;;;;;;;31.88;5.95;;;;;;;;;;6023538;23;20008;-96
2023/01/13 01:44:46;;;;;;;24.17;4.32;;;;;;;;;;6021033;23;20048;-96
2023/01/13 01:50:52;;;;;;;22.73;4.10;;;;;;;;;;5916577;24;20405;-96
2023/01/13 01:53:48;;;;;;;27.70;4.82;;;;;;;;;;6047391;23;20066;-95
2023/01/13 01:56:22;;;;;;;49.97;6.37;;;;;;;;;;6190079;23;20012;-96
2023/01/13 01:58:54;;;;;;;20.52;3.20;;;;;;;;;;6139357;23;20013;-96
2023/01/13 02:01:34;;;;;;;38.30;5.45;;;;;;;;;;6162575;23;20017;-96
2023/01/13 02:04:24;;;;;;;18.02;4.15;;;;;;;;;;6162108;23;20005;-95
2023/01/13 02:06:53;;;;;;;46.17;5.80;;;;;;;;;;6175827;23;20047;-96
2023/01/13 02:09:36;;;;;;;25.60;4.78;;;;;;;;;;6161409;23;20005;-95
2023/01/13 02:14:48;;;;;;;33.67;5.35;;;;;;;;;;6250301;23;20015;-96
2023/01/13 02:17:40;;;;;;;24.15;3.22;;;;;;;;;;6226574;23;20379;-96
2023/01/13 02:20:15;;;;;;;34.53;5.38;;;;;;;;;;6251601;23;20083;-96
2023/01/13 02:23:00;;;;;;;23.88;4.80;;;;;;;;;;6251802;23;20065;-96
2023/01/13 02:25:54;;;;;;;33.33;4.60;;;;;;;;;;6251793;23;20000;-96
2023/01/13 02:31:40;;;;;;;23.70;3.40;;;;;;;;;;6250844;23;20012;-96
2023/01/13 02:40:36;;;;;;;23.25;4.15;;;;;;;;;;6252122;23;20004;-96
2023/01/13 02:45:55;;;;;;;39.47;5.10;;;;;;;;;;6253113;23;20015;-96
2023/01/13 02:48:25;;;;;;;35.60;5.47;;;;;;;;;;6254396;23;20012;-96
2023/01/13 02:54:14;;;;;;;29.90;4.77;;;;;;;;;;6240096;23;20019;-96
2023/01/13 02:57:03;;;;;;;23.10;4.50;;;;;;;;;;6252646;23;20245;-95
2023/01/13 02:59:32;;;;;;;23.23;3.83;;;;;;;;;;6248703;23;20008;-96
2023/01/13 03:02:16;;;;;;;28.80;4.88;;;;;;;;;;6257075;22;20021;-96
2023/01/13 03:08:30;;;;;;;;;;;;;;;;;;;;;
2023/01/13 03:11:11;;;;;;;25.08;4.65;;;;;;;;;;6281451;22;19899;-96
2023/01/13 03:13:54;;;;;;;37.42;3.80;;;;;;;;;;6260557;22;20003;-96
2023/01/13 03:16:23;;;;;;;29.25;5.55;;;;;;;;;;6261424;22;20014;-96
2023/01/13 03:19:52;;;;;;;32.08;4.18;;;;;;;;;;6258524;22;20007;-96
2023/01/13 03:22:50;;;;;;;;;;;;;;;;;;;;;
2023/01/13 03:25:22;;;;;;;19.23;3.45;;;;;;;;;;6127926;23;20097;-96
2023/01/13 03:28:24;;;;;;;26.58;3.60;;;;;;;;;;6241206;22;20451;-96
2023/01/13 03:31:19;;;;;;;;;;;;;;;;;;;;;
2023/01/13 03:34:04;;;;;;;27.45;5.82;;;;;;;;;;6287799;22;20015;-96
2023/01/13 03:36:33;;;;;;;27.17;5.13;;;;;;;;;;6263824;22;20003;-96
2023/01/13 03:39:07;;;;;;;18.13;2.83;;;;;;;;;;6230409;22;20043;-96
2023/01/13 03:41:46;;;;;;;26.05;4.40;;;;;;;;;;6254658;22;20003;-96
2023/01/13 03:44:24;;;;;;;10.60;2.25;;;;;;;;;;6254032;22;20032;-96
2023/01/13 03:46:50;;;;;;;27.70;4.38;;;;;;;;;;6253487;22;20010;-96
2023/01/13 03:49:35;;;;;;;10.88;4.00;;;;;;;;;;6253354;22;19996;-95
2023/01/13 03:52:05;;;;;;;22.40;3.30;;;;;;;;;;6249857;22;20004;-96
2023/01/13 03:54:34;;;;;;;31.23;4.72;;;;;;;;;;6250150;22;20015;-96
2023/01/13 04:09:33;;;;;;;16.35;2.58;;;;;;;;;;6096087;23;20010;-95
2023/01/13 04:12:03;;;;;;;21.60;4.97;;;;;;;;;;6155416;23;20009;-95
2023/01/13 04:36:26;;;;;;;21.55;3.42;;;;;;;;;;5989469;23;20012;-95
2023/01/13 04:38:52;;;;;;;21.77;3.45;;;;;;;;;;6196378;23;20007;-94
2023/01/13 04:41:21;;;;;;;15.18;2.58;;;;;;;;;;6242200;23;20012;-93
2023/01/13 04:44:20;;;;;;;19.25;3.53;;;;;;;;;;6241511;23;20016;-95
2023/01/13 04:46:53;;;;;;;28.85;4.03;;;;;;;;;;6242921;23;20455;-94
2023/01/13 04:49:20;;;;;;;32.20;5.00;;;;;;;;;;6243626;23;20082;-95
2023/01/13 04:51:46;;;;;;;23.05;4.22;;;;;;;;;;6219266;23;20341;-94
2023/01/13 04:54:12;;;;;;;22.30;4.30;;;;;;;;;;6245823;23;20009;-95
2023/01/13 04:56:38;;;;;;;32.58;3.58;;;;;;;;;;6222217;23;20220;-96
2023/01/13 04:59:04;;;;;;;28.98;4.80;;;;;;;;;;6221340;23;20436;-95
2023/01/13 05:01:31;;;;;;;18.17;3.03;;;;;;;;;;6218497;23;20009;-96
2023/01/13 05:04:04;;;;;;;20.02;3.55;;;;;;;;;;6246938;22;20091;-95
2023/01/13 05:06:31;;;;;;;19.25;3.53;;;;;;;;;;6246297;23;20027;-95
2023/01/13 05:09:00;;;;;;;25.27;2.63;;;;;;;;;;6247956;23;20070;-95
2023/01/13 05:19:47;;;;;;;22.02;4.95;;;;;;;;;;6248756;23;20470;-96
2023/01/13 05:25:27;;;;;;;29.23;3.95;;;;;;;;;;6249255;23;20011;-95
2023/01/13 05:27:54;;;;;;;30.50;4.07;;;;;;;;;;6244592;23;20011;-95
2023/01/13 05:30:35;;;;;;;33.25;4.22;;;;;;;;;;6247398;23;20126;-95
2023/01/13 05:33:09;;;;;;;24.48;3.13;;;;;;;;;;6247587;23;20004;-94
2023/01/13 05:35:39;;;;;;;25.88;3.88;;;;;;;;;;6247486;23;20019;-96
2023/01/13 05:38:14;;;;;;;21.60;2.78;;;;;;;;;;6247862;23;20015;-95
2023/01/13 05:43:32;;;;;;;31.05;4.32;;;;;;;;;;6248740;23;20042;-95
2023/01/13 05:46:07;;;;;;;35.22;4.05;;;;;;;;;;6247702;23;20004;-96
2023/01/13 05:48:39;;;;;;;32.92;3.72;;;;;;;;;;6247828;23;20440;-96
2023/01/13 05:51:37;;;;;;;13.60;1.98;;;;;;;;;;6250760;23;20008;-96
2023/01/13 05:54:03;;;;;;;19.90;2.95;;;;;;;;;;6239749;23;20011;-96
2023/01/13 05:56:41;;;;;;;12.40;2.97;;;;;;;;;;6222683;23;20020;-96
2023/01/13 05:59:19;;;;;;;18.58;3.50;;;;;;;;;;6222694;23;20012;-96
2023/01/13 06:01:51;;;;;;;16.90;2.75;;;;;;;;;;6244385;23;20004;-95
2023/01/13 06:04:17;;;;;;;3.80;1.15;;;;;;;;;;6221795;22;20016;-95
2023/01/13 06:09:54;;;;;;;26.58;4.40;;;;;;;;;;6244817;23;20047;-94
2023/01/13 06:12:20;;;;;;;5.78;1.58;;;;;;;;;;6218833;23;20066;-95
2023/01/13 06:14:46;;;;;;;26.85;4.43;;;;;;;;;;6218242;23;20019;-96
2023/01/13 06:17:15;;;;;;;16.10;3.58;;;;;;;;;;6244558;23;20058;-96
2023/01/13 06:19:51;;;;;;;;;;;;;;;;;;;;;
2023/01/13 06:22:21;;;;;;;28.83;3.17;;;;;;;;;;6245080;23;20472;-95
2023/01/13 06:24:48;;;;;;;12.00;1.98;;;;;;;;;;6243401;23;20395;-95
2023/01/13 06:27:15;;;;;;;16.48;3.17;;;;;;;;;;6245677;23;20008;-96
2023/01/13 06:29:44;;;;;;;13.55;2.45;;;;;;;;;;6246933;23;20058;-96
2023/01/13 06:32:43;;;;;;;18.27;3.75;;;;;;;;;;6246496;23;20011;-96
2023/01/13 06:35:15;;;;;;;23.25;3.13;;;;;;;;;;6196266;23;20012;-96
2023/01/13 06:37:43;;;;;;;13.52;2.30;;;;;;;;;;6247602;23;20014;-95
2023/01/13 06:40:14;;;;;;;23.13;3.60;;;;;;;;;;6248065;23;20034;-96
2023/01/13 06:45:30;;;;;;;28.58;3.83;;;;;;;;;;6244336;23;20066;-96
2023/01/13 06:47:58;;;;;;;11.98;2.40;;;;;;;;;;6243513;23;20102;-95
2023/01/13 06:50:24;;;;;;;19.17;3.20;;;;;;;;;;6246056;23;20042;-96
2023/01/13 06:52:50;;;;;;;19.10;3.10;;;;;;;;;;6246702;23;20008;-95
2023/01/13 06:56:07;;;;;;;8.05;1.75;;;;;;;;;;6245490;23;20058;-96
2023/01/13 06:58:35;;;;;;;27.92;2.70;;;;;;;;;;6240164;22;20008;-96
2023/01/13 07:01:01;;;;;;;17.35;2.72;;;;;;;;;;6221727;23;20019;-96
2023/01/13 07:03:27;;;;;;;8.32;2.20;;;;;;;;;;6250701;22;20012;-96
2023/01/13 07:05:54;;;;;;;19.73;2.85;;;;;;;;;;6243260;23;20008;-95
2023/01/13 07:08:23;;;;;;;19.67;3.17;;;;;;;;;;6242196;23;20430;-96
2023/01/13 07:10:50;;;;;;;23.05;2.90;;;;;;;;;;6243724;23;20351;-95
2023/01/13 07:16:07;;;;;;;15.85;2.65;;;;;;;;;;6245500;23;20023;-95
2023/01/13 07:18:34;;;;;;;23.20;3.50;;;;;;;;;;6243267;23;20608;-95
2023/01/13 07:21:05;;;;;;;13.13;2.17;;;;;;;;;;6242255;23;20071;-95
2023/01/13 07:23:38;;;;;;;18.95;3.35;;;;;;;;;;6241948;23;20004;-94
2023/01/13 07:26:05;;;;;;;14.38;2.35;;;;;;;;;;6242388;23;20008;-94
2023/01/13 07:28:31;;;;;;;18.75;3.40;;;;;;;;;;6242887;23;20083;-94
2023/01/13 07:30:57;;;;;;;14.60;3.28;;;;;;;;;;6217529;23;20016;-93
2023/01/13 07:33:24;;;;;;;20.73;3.35;;;;;;;;;;6241265;23;20103;-94
2023/01/13 07:35:59;;;;;;;20.75;3.38;;;;;;;;;;6239482;23;20019;-94
2023/01/13 07:38:26;;;;;;;15.20;2.78;;;;;;;;;;6238797;23;20008;-94
2023/01/13 07:40:52;;;;;;;30.52;3.22;;;;;;;;;;6240585;23;20004;-94
2023/01/13 07:43:33;;;;;;;8.95;2.30;;;;;;;;;;6215003;23;20072;-94
2023/01/13 07:46:01;;;;;;;16.27;2.38;;;;;;;;;;6218062;23;20008;-94
2023/01/13 07:48:27;;;;;;;24.05;4.20;;;;;;;;;;6240706;23;20008;-94
2023/01/13 07:50:56;;;;;;;10.52;2.90;;;;;;;;;;6215423;23;20019;-94
2023/01/13 07:53:28;;;;;;;11.95;2.13;;;;;;;;;;6239706;23;20030;-94
2023/01/13 07:55:55;;;;;;;20.33;3.08;;;;;;;;;;6241684;23;20436;-94
2023/01/13 08:02:27;;;;;;;;;;;;;;;;;;;;;
2023/01/13 08:27:13;;;;;;;24.98;2.30;;;;;;;;;;6109711;23;20003;-96
2023/01/13 08:36:40;;;;;;;13.20;3.00;;;;;;;;;;6018261;23;20345;-96
2023/01/13 09:17:44;;;;;;;35.53;3.97;;;;;;;;;;6260351;22;20023;-91
2023/01/13 09:20:10;;;;;;;21.02;4.03;;;;;;;;;;6230447;22;20012;-92
2023/01/13 09:22:51;;;;;;;19.55;3.28;;;;;;;;;;6231851;22;20015;-93
2023/01/13 09:25:17;;;;;;;17.02;4.35;;;;;;;;;;6254841;22;19994;-93
2023/01/13 09:27:51;;;;;;;22.42;3.30;;;;;;;;;;6233794;22;20007;-93
2023/01/13 09:36:00;;;;;;;22.00;3.67;;;;;;;;;;6282063;22;20073;-91
2023/01/13 09:38:29;;;;;;;6.22;1.85;;;;;;;;;;6283392;22;20011;-92
2023/01/13 09:43:52;;;;;;;23.23;3.63;;;;;;;;;;6233456;22;20371;-93
2023/01/13 09:43:58;;;;;;;19.40;2.97;;;;;;;;;;6263490;22;20004;-94
2023/01/13 09:52:57;;;;;;;15.20;2.75;;;;;;;;;;6120613;22;20436;-93
2023/01/13 09:55:29;;;;;;;16.77;2.88;;;;;;;;;;6252596;22;20003;-88
2023/01/13 09:57:55;;;;;;;20.75;3.40;;;;;;;;;;6255225;22;20316;-94
2023/01/13 10:00:49;;;;;;;9.95;1.55;;;;;;;;;;6258672;22;20004;-93
2023/01/13 10:06:55;;;;;;;22.85;3.28;;;;;;;;;;6285170;22;20086;-95
2023/01/13 10:15:36;;;;;;;18.17;4.05;;;;;;;;;;6188974;23;20424;-93
2023/01/13 10:19:30;;;;;;;;;;;;;;;;;;;;;
2023/01/13 10:28:22;;;;;;;;;;;;;;;;;;;;;
2023/01/13 10:30:51;;;;;;;11.45;1.23;;;;;;;;;;6185410;23;20115;-93
2023/01/13 10:33:23;;;;;;;18.27;3.30;;;;;;;;;;6136864;23;20005;-94
2023/01/13 10:38:48;;;;;;;27.10;2.83;;;;;;;;;;6158214;23;20464;-94
2023/01/13 10:41:14;;;;;;;24.40;2.70;;;;;;;;;;6220938;22;20339;-92
2023/01/13 10:44:00;;;;;;;10.80;3.00;;;;;;;;;;6253127;22;20233;-94
2023/01/13 10:46:38;;;;;;;32.10;3.80;;;;;;;;;;6261212;22;20008;-94
2023/01/13 10:49:26;;;;;;;14.38;2.55;;;;;;;;;;6261377;22;20242;-94
2023/01/13 10:51:52;;;;;;;35.70;2.95;;;;;;;;;;6258629;22;20031;-92
2023/01/13 10:54:23;;;;;;;23.13;3.38;;;;;;;;;;6252788;22;20007;-94
2023/01/13 10:56:50;;;;;;;15.38;2.80;;;;;;;;;;6230682;22;20026;-91
2023/01/13 10:59:25;;;;;;;20.77;4.13;;;;;;;;;;6231565;22;20050;-93
2023/01/13 11:01:57;;;;;;;10.95;2.35;;;;;;;;;;6253189;22;20008;-92
2023/01/13 11:04:30;;;;;;;72.43;6.20;;;;;;;;;;6247566;22;20503;-92
2023/01/13 11:06:56;;;;;;;12.82;1.70;;;;;;;;;;6247488;22;20011;-92
2023/01/13 11:09:24;;;;;;;8.48;1.50;;;;;;;;;;6220601;22;20102;-92
2023/01/13 11:11:54;;;;;;;18.27;2.45;;;;;;;;;;6245302;22;20340;-92
2023/01/13 11:14:35;;;;;;;19.23;4.20;;;;;;;;;;6221995;22;20015;-93
2023/01/13 11:17:20;;;;;;;21.70;2.95;;;;;;;;;;6246879;22;20007;-93
2023/01/13 11:19:50;;;;;;;22.80;2.38;;;;;;;;;;6241169;23;20016;-92
2023/01/13 11:22:19;;;;;;;14.10;2.85;;;;;;;;;;6240572;23;20008;-92
2023/01/13 11:24:50;;;;;;;11.90;1.30;;;;;;;;;;6241771;23;20482;-92
2023/01/13 11:27:25;;;;;;;18.55;3.22;;;;;;;;;;6241430;23;20018;-92
2023/01/13 11:30:12;;;;;;;8.30;1.80;;;;;;;;;;6242266;23;20428;-91
2023/01/13 11:32:47;;;;;;;28.38;3.15;;;;;;;;;;6197732;23;20014;-91
2023/01/13 11:35:17;;;;;;;15.45;3.25;;;;;;;;;;6240794;23;20466;-92
2023/01/13 11:37:46;;;;;;;20.48;3.42;;;;;;;;;;6241496;23;20034;-92
2023/01/13 11:40:24;;;;;;;24.40;3.35;;;;;;;;;;6242001;23;20015;-91
2023/01/13 11:42:53;;;;;;;12.38;2.72;;;;;;;;;;6240100;23;20340;-92
2023/01/13 11:45:27;;;;;;;8.07;1.85;;;;;;;;;;6241734;23;20023;-91
2023/01/13 11:47:56;;;;;;;22.35;4.75;;;;;;;;;;6241262;23;20436;-92
2023/01/13 11:50:39;;;;;;;14.00;2.47;;;;;;;;;;6240295;23;20058;-92
2023/01/13 11:53:24;;;;;;;6.47;1.25;;;;;;;;;;6240520;23;20012;-92
2023/01/13 11:56:01;;;;;;;19.03;3.97;;;;;;;;;;6242364;23;20024;-92
2023/01/13 11:58:56;;;;;;;13.95;2.70;;;;;;;;;;6240310;23;20251;-92
2023/01/13 12:01:37;;;;;;;11.13;2.42;;;;;;;;;;6240547;23;20010;-91
2023/01/13 12:04:14;;;;;;;15.70;3.10;;;;;;;;;;6241170;23;20066;-91
2023/01/13 12:06:44;;;;;;;9.07;1.25;;;;;;;;;;6240755;23;20004;-92
2023/01/13 12:09:31;;;;;;;15.05;2.05;;;;;;;;;;6238056;23;20023;-92
2023/01/13 12:15:01;;;;;;;15.90;1.73;;;;;;;;;;6242805;23;20286;-91
2023/01/13 12:18:00;;;;;;;12.68;2.00;;;;;;;;;;6248516;22;20020;-91
2023/01/13 12:20:45;;;;;;;17.85;1.88;;;;;;;;;;6165619;22;20458;-92
2023/01/13 12:23:37;;;;;;;11.32;3.03;;;;;;;;;;6248063;22;20008;-92
2023/01/13 12:26:22;;;;;;;7.50;2.33;;;;;;;;;;6191219;22;20488;-91
2023/01/13 12:28:48;;;;;;;20.60;2.85;;;;;;;;;;6248977;22;20039;-92
2023/01/13 12:31:17;;;;;;;14.23;2.75;;;;;;;;;;6247924;22;20015;-92
2023/01/13 12:33:46;;;;;;;22.58;2.30;;;;;;;;;;6247507;22;20003;-92
2023/01/13 12:36:23;;;;;;;5.28;1.70;;;;;;;;;;6247417;22;20034;-92
2023/01/13 12:38:52;;;;;;;20.95;2.15;;;;;;;;;;6246148;22;20475;-91
2023/01/13 12:41:18;;;;;;;6.82;1.80;;;;;;;;;;6247926;22;20274;-91
2023/01/13 12:46:33;;;;;;;17.40;2.20;;;;;;;;;;6277259;22;20019;-92
2023/01/13 12:49:06;;;;;;;12.82;2.75;;;;;;;;;;6248788;22;20008;-92
2023/01/13 12:51:37;;;;;;;20.58;2.15;;;;;;;;;;6249198;22;20423;-92
2023/01/13 12:54:23;;;;;;;14.77;2.90;;;;;;;;;;6248726;22;20054;-92
2023/01/13 12:56:49;;;;;;;2.67;0.85;;;;;;;;;;6247291;22;20008;-92
2023/01/13 12:59:20;;;;;;;13.63;2.10;;;;;;;;;;6248072;22;20106;-92
2023/01/13 13:01:50;;;;;;;14.45;1.50;;;;;;;;;;6248999;22;20003;-93
2023/01/13 13:04:22;;;;;;;14.15;2.00;;;;;;;;;;6250846;22;20010;-92
2023/01/13 13:06:54;;;;;;;10.65;1.95;;;;;;;;;;6249022;22;20004;-92
2023/01/13 13:09:23;;;;;;;15.35;2.15;;;;;;;;;;6224353;22;20012;-92
2023/01/13 13:14:43;;;;;;;20.83;1.80;;;;;;;;;;6286563;22;20012;-93
2023/01/13 13:17:30;;;;;;;22.65;2.90;;;;;;;;;;6247861;22;20004;-92
2023/01/13 13:19:57;;;;;;;4.70;1.42;;;;;;;;;;6212689;23;20013;-92
2023/01/13 13:22:37;;;;;;;4.25;1.48;;;;;;;;;;6187376;23;20039;-92
2023/01/13 13:25:04;;;;;;;3.58;1.20;;;;;;;;;;6213048;23;20008;-92
2023/01/13 13:27:47;;;;;;;9.50;1.88;;;;;;;;;;6212700;23;20058;-93
2023/01/13 13:30:13;;;;;;;10.68;1.92;;;;;;;;;;6213343;23;20206;-93
2023/01/13 13:33:01;;;;;;;7.07;1.52;;;;;;;;;;6211858;23;20020;-92
2023/01/13 13:35:45;;;;;;;15.20;1.92;;;;;;;;;;6212543;23;20092;-93
2023/01/13 13:49:11;;;;;;;8.00;1.73;;;;;;;;;;6213804;23;20024;-93
2023/01/13 13:51:40;;;;;;;14.75;2.15;;;;;;;;;;6211389;23;20005;-92
2023/01/13 13:54:10;;;;;;;22.92;2.38;;;;;;;;;;6210786;23;20012;-92
2023/01/13 13:56:38;;;;;;;13.20;1.95;;;;;;;;;;6211107;23;20013;-92
2023/01/13 13:59:04;;;;;;;7.90;2.00;;;;;;;;;;6212511;23;20095;-92
2023/01/13 14:01:34;;;;;;;6.80;1.98;;;;;;;;;;6191637;23;20013;-91
2023/01/13 14:04:26;;;;;;;3.30;0.88;;;;;;;;;;6221206;23;20001;-93
2023/01/13 14:07:03;;;;;;;9.00;1.80;;;;;;;;;;6202550;23;20000;-95
2023/01/13 14:09:42;;;;;;;17.15;3.00;;;;;;;;;;6221721;23;20340;-95
2023/01/13 14:12:37;;;;;;;8.93;1.08;;;;;;;;;;6220868;23;20000;-96
2023/01/13 14:18:08;;;;;;;5.97;1.73;;;;;;;;;;6235358;22;20051;-95
2023/01/13 14:21:12;;;;;;;9.90;1.80;;;;;;;;;;6256853;22;20431;-94
2023/01/13 14:23:38;;;;;;;9.80;1.73;;;;;;;;;;6256073;22;20008;-93
2023/01/13 14:26:11;;;;;;;14.18;2.35;;;;;;;;;;6252624;22;20000;-92
2023/01/13 14:28:40;;;;;;;13.70;2.85;;;;;;;;;;6278286;22;20118;-92
2023/01/13 14:31:19;;;;;;;3.45;0.77;;;;;;;;;;6228426;22;20012;-93
2023/01/13 14:34:07;;;;;;;11.27;2.05;;;;;;;;;;6256556;22;20335;-94
2023/01/13 14:36:33;;;;;;;12.45;2.58;;;;;;;;;;6253925;22;20019;-92
2023/01/13 14:39:04;;;;;;;11.10;2.00;;;;;;;;;;6253543;22;20007;-94
2023/01/13 14:41:39;;;;;;;11.40;1.30;;;;;;;;;;6246536;22;20006;-92
2023/01/13 14:44:13;;;;;;;7.65;1.48;;;;;;;;;;6246097;22;20046;-93
2023/01/13 14:46:48;;;;;;;10.02;2.40;;;;;;;;;;6245828;22;20041;-93
2023/01/13 14:49:35;;;;;;;5.82;1.02;;;;;;;;;;6246657;22;20022;-93
2023/01/13 14:52:01;;;;;;;;;;;;;;;;;;6170129;22;20014;-92
2023/01/13 14:54:51;;;;;;;9.43;1.83;;;;;;;;;;6255873;22;20299;-95
2023/01/13 14:58:01;;;;;;;23.27;2.65;;;;;;;;;;6256879;22;20003;-94
2023/01/13 15:03:38;;;;;;;11.73;2.15;;;;;;;;;;6043025;23;20042;-93
2023/01/13 15:06:20;;;;;;;13.93;2.08;;;;;;;;;;6053856;23;20574;-92
2023/01/13 15:08:46;;;;;;;19.42;2.15;;;;;;;;;;6120889;23;20010;-91
2023/01/13 15:11:26;;;;;;;15.63;2.45;;;;;;;;;;6133297;22;20015;-91
2023/01/13 15:13:55;;;;;;;17.02;1.80;;;;;;;;;;6247699;22;20014;-92
2023/01/13 15:16:23;;;;;;;13.52;2.25;;;;;;;;;;6247990;22;20008;-93
2023/01/13 15:19:03;;;;;;;6.90;1.60;;;;;;;;;;6248534;22;20076;-93
2023/01/13 15:21:29;;;;;;;12.20;2.17;;;;;;;;;;6246094;22;20055;-92
2023/01/13 15:23:56;;;;;;;7.47;1.55;;;;;;;;;;6245199;22;20015;-92
2023/01/13 15:26:23;;;;;;;6.97;2.10;;;;;;;;;;6246775;22;20446;-93
2023/01/13 15:28:49;;;;;;;8.70;1.98;;;;;;;;;;6249019;22;20090;-91
2023/01/13 15:31:16;;;;;;;15.98;2.17;;;;;;;;;;6221412;22;20019;-92
2023/01/13 15:33:42;;;;;;;9.88;1.83;;;;;;;;;;6247124;22;20007;-93
2023/01/13 15:36:18;;;;;;;15.35;1.77;;;;;;;;;;6247091;22;20004;-93
2023/01/13 15:38:44;;;;;;;15.60;2.28;;;;;;;;;;6247233;22;20071;-93
2023/01/13 15:41:10;;;;;;;9.23;2.20;;;;;;;;;;6223472;22;20007;-92
2023/01/13 15:46:36;;;;;;;19.67;3.40;;;;;;;;;;6251686;22;20019;-92
2023/01/13 15:49:08;;;;;;;18.13;2.92;;;;;;;;;;6247275;22;20027;-92
2023/01/13 15:51:37;;;;;;;9.35;2.40;;;;;;;;;;6272863;22;20019;-92
2023/01/13 15:54:04;;;;;;;10.40;2.15;;;;;;;;;;6253653;22;20050;-93
2023/01/13 15:56:35;;;;;;;7.22;0.57;;;;;;;;;;6226045;22;20102;-96
2023/01/13 15:59:18;;;;;;;4.00;0.65;;;;;;;;;;6285336;22;19988;-96
2023/01/13 16:01:50;;;;;;;7.68;1.08;;;;;;;;;;6259475;22;20086;-95
2023/01/13 16:04:18;;;;;;;4.88;1.02;;;;;;;;;;6229689;22;20015;-96
2023/01/13 17:32:45;;;;;;;5.07;1.65;;;;;;;;;;6285054;22;20035;-94
2023/01/13 17:35:34;;;;;;;11.07;2.40;;;;;;;;;;5721548;22;11948380;-93
2023/01/13 17:38:01;;;;;;;8.68;1.90;;;;;;;;;;6229190;23;20428;-91
2023/01/13 17:40:27;;;;;;;5.60;1.77;;;;;;;;;;6226377;23;20557;-94
2023/01/13 17:43:07;;;;;;;15.20;2.10;;;;;;;;;;6229468;23;20424;-94
2023/01/13 21:07:37;;;;;;;9.95;1.02;;;;;;;;;;6250090;22;20036;-92
2023/01/13 21:10:03;;;;;;;4.95;1.45;;;;;;;;;;6226074;22;20011;-93
2023/01/13 21:15:16;;;;;;;7.65;1.10;;;;;;;;;;6277575;22;20018;-93
2023/01/13 21:20:29;;;;;;;8.82;1.75;;;;;;;;;;6277888;22;20014;-93
2023/01/13 21:22:55;;;;;;;22.08;1.80;;;;;;;;;;6250454;22;20067;-93
2023/01/13 21:25:22;;;;;;;10.23;2.17;;;;;;;;;;6251539;22;20324;-93
2023/01/13 21:28:07;;;;;;;5.22;1.17;;;;;;;;;;6250294;22;20370;-94
2023/01/13 21:30:34;;;;;;;12.80;1.75;;;;;;;;;;6251101;22;20087;-93
2023/01/13 21:33:02;;;;;;;25.05;2.63;;;;;;;;;;6250501;22;20057;-93
2023/01/13 21:35:29;;;;;;;11.60;1.95;;;;;;;;;;6226120;22;20019;-93
2023/01/13 21:37:55;;;;;;;10.57;1.85;;;;;;;;;;6224437;22;20030;-93
2023/01/13 21:40:21;;;;;;;14.95;2.38;;;;;;;;;;6223887;22;20246;-93
2023/01/13 21:48:16;;;;;;;19.65;2.22;;;;;;;;;;6222662;23;20403;-93
2023/01/13 21:50:45;;;;;;;12.27;3.00;;;;;;;;;;6244478;23;20014;-93
2023/01/13 21:53:11;;;;;;;20.33;3.53;;;;;;;;;;6194155;23;20732;-93
2023/01/13 21:55:40;;;;;;;8.95;2.78;;;;;;;;;;6194745;23;20016;-93
2023/01/13 21:58:10;;;;;;;7.18;1.38;;;;;;;;;;6198844;23;20154;-90
2023/01/13 22:00:37;;;;;;;18.80;2.35;;;;;;;;;;6248485;23;20008;-92
2023/01/13 22:03:07;;;;;;;9.02;1.83;;;;;;;;;;6198415;23;20155;-92
2023/01/13 22:05:33;;;;;;;20.15;1.90;;;;;;;;;;6246634;23;20000;-92
2023/01/13 22:07:59;;;;;;;31.02;4.07;;;;;;;;;;6184994;22;20457;-92
2023/01/13 22:10:27;;;;;;;23.52;2.78;;;;;;;;;;6188612;23;20024;-92
2023/01/13 22:12:54;;;;;;;19.92;3.60;;;;;;;;;;6163222;23;20033;-92
2023/01/13 22:15:21;;;;;;;23.80;3.00;;;;;;;;;;6188446;23;20091;-92
2023/01/13 22:17:50;;;;;;;17.30;2.00;;;;;;;;;;6164401;23;20516;-91
2023/01/13 22:20:20;;;;;;;11.38;1.70;;;;;;;;;;6187995;23;20583;-92
2023/01/13 22:22:49;;;;;;;8.25;1.90;;;;;;;;;;6188197;23;20000;-92
2023/01/13 22:25:16;;;;;;;15.68;1.13;;;;;;;;;;6186767;23;20119;-92
2023/01/13 22:27:43;;;;;;;19.30;2.42;;;;;;;;;;6214169;23;20791;-92
2023/01/13 22:30:17;;;;;;;17.30;2.58;;;;;;;;;;6186761;23;20015;-92
2023/01/13 22:32:44;;;;;;;8.70;1.45;;;;;;;;;;6186108;23;20009;-91
2023/01/13 22:35:11;;;;;;;12.32;1.67;;;;;;;;;;6186684;23;20012;-92
2023/01/13 22:37:38;;;;;;;9.20;0.90;;;;;;;;;;6187667;23;20028;-93
2023/01/13 22:40:05;;;;;;;3.63;1.33;;;;;;;;;;6187876;23;20775;-92
2023/01/13 22:42:31;;;;;;;14.95;1.95;;;;;;;;;;6188724;23;20096;-92
2023/01/13 22:44:57;;;;;;;8.30;1.42;;;;;;;;;;6190441;23;20036;-92
2023/01/13 22:47:23;;;;;;;6.13;1.30;;;;;;;;;;6188842;23;20139;-92
2023/01/13 22:49:49;;;;;;;4.80;1.60;;;;;;;;;;6165242;23;20008;-92
2023/01/13 22:52:16;;;;;;;5.18;1.55;;;;;;;;;;6163406;23;20482;-91
2023/01/13 22:54:42;;;;;;;16.45;2.70;;;;;;;;;;6164639;23;20029;-92
2023/01/13 22:57:08;;;;;;;11.38;1.85;;;;;;;;;;6162849;23;20048;-92
2023/01/13 22:59:35;;;;;;;26.88;2.80;;;;;;;;;;6159391;23;20017;-91
2023/01/13 23:02:01;;;;;;;21.50;2.03;;;;;;;;;;6187843;23;20409;-92
2023/01/13 23:04:28;;;;;;;9.10;1.85;;;;;;;;;;6189755;23;20084;-92
2023/01/13 23:06:55;;;;;;;19.23;2.35;;;;;;;;;;6188614;23;20062;-93
2023/01/13 23:09:24;;;;;;;15.20;2.63;;;;;;;;;;6165174;22;20033;-92
2023/01/13 23:11:50;;;;;;;13.13;2.05;;;;;;;;;;6188982;23;20072;-91
2023/01/13 23:14:16;;;;;;;19.83;2.83;;;;;;;;;;6169801;23;20012;-93
2023/01/13 23:16:45;;;;;;;13.75;2.08;;;;;;;;;;6172139;23;20043;-92
2023/01/13 23:19:11;;;;;;;28.02;2.85;;;;;;;;;;6166920;23;20036;-92
2023/01/13 23:21:38;;;;;;;16.65;2.25;;;;;;;;;;6167224;23;20151;-91
2023/01/13 23:24:05;;;;;;;18.50;1.77;;;;;;;;;;6186995;23;20036;-91
2023/01/13 23:26:32;;;;;;;13.45;3.28;;;;;;;;;;6160892;23;20017;-92
2023/01/13 23:29:01;;;;;;;31.63;2.58;;;;;;;;;;6188675;23;20016;-92
2023/01/13 23:31:29;;;;;;;15.77;2.03;;;;;;;;;;6188900;23;20013;-92
2023/01/13 23:33:55;;;;;;;23.35;3.88;;;;;;;;;;6164649;23;20051;-93
2023/01/13 23:36:22;;;;;;;16.13;2.78;;;;;;;;;;6163940;23;20064;-93
2023/01/13 23:38:49;;;;;;;15.57;2.78;;;;;;;;;;6187513;23;20016;-92
2023/01/13 23:41:17;;;;;;;21.23;3.00;;;;;;;;;;6188324;23;20011;-92
2023/01/13 23:43:43;;;;;;;25.48;4.07;;;;;;;;;;6186754;23;20008;-93
2023/01/13 23:46:11;;;;;;;25.63;3.25;;;;;;;;;;6164821;23;20058;-92
2023/01/13 23:48:37;;;;;;;22.50;3.30;;;;;;;;;;6187522;23;20036;-92
2023/01/13 23:51:07;;;;;;;24.50;3.95;;;;;;;;;;6188029;23;20310;-93
2023/01/13 23:53:36;;;;;;;38.88;3.80;;;;;;;;;;6188151;23;20016;-92
2023/01/13 23:56:03;;;;;;;23.55;2.85;;;;;;;;;;6188668;23;20326;-93
2023/01/13 23:58:29;;;;;;;22.23;4.93;;;;;;;;;;6188837;23;20373;-92
